createdAt,value
2019-05-21T00:00:19.879Z,20.93
2019-05-21T00:02:45.923Z,18.60
2019-05-21T00:05:31.858Z,21.07
2019-05-21T00:07:57.920Z,19.77
2019-05-21T00:10:24.007Z,19.63
2019-05-21T00:12:50.076Z,20.70
2019-05-21T00:15:16.284Z,19.53
2019-05-21T00:17:42.349Z,22.30
2019-05-21T00:20:08.663Z,21.93
2019-05-21T00:22:35.083Z,19.80
2019-05-21T00:25:01.962Z,22.33
2019-05-21T00:27:31.179Z,20.73
2019-05-21T00:30:34.408Z,21.50
2019-05-21T00:33:38.225Z,22.20
2019-05-21T00:36:44.146Z,21.97
2019-05-21T00:39:47.758Z,20.67
2019-05-21T00:42:35.703Z,20.80
2019-05-21T00:45:07.721Z,19.80
2019-05-21T00:47:33.751Z,20.13
2019-05-21T00:49:59.795Z,19.67
2019-05-21T00:52:25.813Z,19.57
2019-05-21T00:54:52.267Z,18.50
2019-05-21T00:57:18.349Z,18.07
2019-05-21T00:59:45.471Z,20.57
2019-05-21T01:02:11.492Z,16.40
2019-05-21T01:05:00.809Z,16.43
2019-05-21T01:07:25.755Z,15.47
2019-05-21T01:09:51.836Z,15.57
2019-05-21T01:12:17.868Z,15.23
2019-05-21T01:14:48.905Z,14.93
2019-05-21T01:17:14.952Z,15.50
2019-05-21T01:19:42.955Z,15.17
2019-05-21T01:22:08.961Z,16.37
2019-05-21T01:24:35.015Z,17.00
2019-05-21T01:27:01.037Z,17.40
2019-05-21T01:29:27.132Z,17.10
2019-05-21T01:31:53.160Z,17.90
2019-05-21T01:34:19.215Z,16.57
2019-05-21T01:36:45.251Z,16.03
2019-05-21T01:39:11.302Z,16.80
2019-05-21T01:41:37.318Z,16.63
2019-05-21T01:44:03.457Z,15.70
2019-05-21T01:46:29.479Z,15.77
2019-05-21T01:48:55.568Z,13.20
2019-05-21T01:51:21.957Z,13.50
2019-05-21T01:53:49.412Z,13.20
2019-05-21T01:56:15.847Z,12.90
2019-05-21T01:58:42.250Z,12.50
2019-05-21T02:01:08.680Z,13.00
2019-05-21T02:03:35.065Z,11.57
2019-05-21T02:06:01.504Z,11.27
2019-05-21T02:08:28.019Z,11.03
2019-05-21T02:10:54.447Z,11.10
2019-05-21T02:13:27.978Z,12.50
2019-05-21T02:15:54.394Z,12.70
2019-05-21T02:18:20.822Z,11.77
2019-05-21T02:20:47.321Z,12.20
2019-05-21T02:23:13.710Z,12.20
2019-05-21T02:25:44.889Z,12.37
2019-05-21T02:28:11.275Z,11.80
2019-05-21T02:30:38.785Z,13.50
2019-05-21T02:33:05.206Z,11.90
2019-05-21T02:35:31.592Z,10.60
2019-05-21T02:37:58.030Z,12.37
2019-05-21T02:40:24.496Z,12.07
2019-05-21T02:42:50.923Z,10.87
2019-05-21T02:45:37.238Z,9.80
2019-05-21T02:48:03.841Z,11.23
2019-05-21T02:50:30.241Z,11.53
2019-05-21T02:52:57.191Z,10.67
2019-05-21T02:55:43.511Z,11.50
2019-05-21T02:58:10.009Z,12.00
2019-05-21T03:00:38.962Z,13.53
2019-05-21T03:03:07.670Z,11.70
2019-05-21T03:05:34.350Z,10.67
2019-05-21T03:08:01.115Z,11.87
2019-05-21T03:10:27.657Z,11.97
2019-05-21T03:12:54.148Z,11.30
2019-05-21T03:15:20.527Z,11.07
2019-05-21T03:17:46.952Z,10.80
2019-05-21T03:20:13.548Z,12.30
2019-05-21T03:22:39.975Z,12.90
2019-05-21T03:25:06.456Z,13.00
2019-05-21T03:27:32.880Z,12.40
2019-05-21T03:29:59.274Z,12.27
2019-05-21T03:32:25.789Z,12.63
2019-05-21T03:34:52.205Z,13.27
2019-05-21T03:37:18.613Z,12.07
2019-05-21T03:39:45.001Z,13.03
2019-05-21T03:42:11.445Z,14.33
2019-05-21T03:44:37.831Z,13.37
2019-05-21T03:47:04.219Z,13.13
2019-05-21T03:49:30.648Z,13.80
2019-05-21T03:51:57.057Z,13.80
2019-05-21T03:54:23.471Z,14.10
2019-05-21T03:56:49.865Z,13.73
2019-05-21T03:59:16.419Z,14.23
2019-05-21T04:01:42.883Z,13.57
2019-05-21T04:04:09.307Z,14.10
2019-05-21T04:06:50.539Z,14.17
2019-05-21T04:09:05.316Z,14.07
2019-05-21T04:11:31.844Z,14.03
2019-05-21T04:13:58.264Z,14.43
2019-05-21T04:16:26.590Z,14.77
2019-05-21T04:19:13.174Z,16.67
2019-05-21T04:21:39.567Z,12.47
2019-05-21T04:24:25.916Z,15.70
2019-05-21T04:26:52.312Z,15.73
2019-05-21T04:29:18.824Z,16.00
2019-05-21T04:31:45.256Z,15.27
2019-05-21T04:34:11.679Z,17.62
2019-05-21T04:36:48.061Z,14.83
2019-05-21T04:39:14.477Z,14.00
2019-05-21T04:41:40.884Z,15.60
2019-05-21T04:44:07.338Z,14.13
2019-05-21T04:46:33.897Z,14.80
2019-05-21T04:49:01.803Z,14.90
2019-05-21T04:51:28.230Z,14.37
2019-05-21T04:53:54.761Z,15.23
2019-05-21T04:56:21.146Z,14.40
2019-05-21T04:58:47.565Z,14.70
2019-05-21T05:01:14.069Z,14.03
2019-05-21T05:03:40.456Z,15.17
2019-05-21T05:06:06.936Z,16.93
2019-05-21T05:08:33.319Z,14.40
2019-05-21T05:10:59.784Z,14.77
2019-05-21T05:13:26.285Z,14.20
2019-05-21T05:15:52.706Z,13.87
2019-05-21T05:18:19.099Z,12.57
2019-05-21T05:20:45.507Z,14.30
2019-05-21T05:23:11.895Z,13.17
2019-05-21T05:25:38.304Z,14.37
2019-05-21T05:28:25.659Z,14.20
2019-05-21T05:30:52.097Z,14.23
2019-05-21T05:33:18.491Z,14.03
2019-05-21T05:35:45.458Z,13.60
2019-05-21T05:38:11.864Z,14.30
2019-05-21T05:40:38.313Z,14.40
2019-05-21T05:43:04.731Z,16.48
2019-05-21T05:45:37.427Z,15.40
2019-05-21T05:48:03.815Z,15.27
2019-05-21T05:50:52.023Z,14.20
2019-05-21T05:53:18.409Z,14.97
2019-05-21T05:55:44.830Z,16.00
2019-05-21T05:58:11.219Z,14.30
2019-05-21T06:00:37.700Z,14.97
2019-05-21T06:03:04.083Z,14.53
2019-05-21T06:05:30.499Z,13.73
2019-05-21T06:08:00.201Z,13.93
2019-05-21T06:10:25.264Z,14.47
2019-05-21T06:12:51.645Z,14.30
2019-05-21T06:15:18.044Z,12.50
2019-05-21T06:17:44.465Z,14.30
2019-05-21T06:20:11.353Z,13.37
2019-05-21T06:22:57.653Z,13.57
2019-05-21T06:25:25.153Z,13.90
2019-05-21T06:27:51.619Z,14.90
2019-05-21T06:30:18.167Z,14.20
2019-05-21T06:32:44.596Z,14.57
2019-05-21T06:35:11.079Z,12.23
2019-05-21T06:37:37.500Z,14.37
2019-05-21T06:40:04.126Z,14.13
2019-05-21T06:42:30.612Z,14.93
2019-05-21T06:44:57.001Z,13.70
2019-05-21T06:47:23.448Z,14.17
2019-05-21T06:49:49.845Z,14.97
2019-05-21T06:52:16.263Z,14.00
2019-05-21T06:55:02.535Z,14.97
2019-05-21T06:57:28.957Z,14.73
2019-05-21T06:59:55.351Z,14.20
2019-05-21T07:02:21.783Z,14.00
2019-05-21T07:04:48.163Z,13.17
2019-05-21T07:07:14.571Z,16.85
2019-05-21T07:09:41.030Z,14.00
2019-05-21T07:12:07.412Z,12.80
2019-05-21T07:14:33.851Z,12.90
2019-05-21T07:17:00.235Z,13.00
2019-05-21T07:19:26.656Z,12.67
2019-05-21T07:21:53.036Z,12.53
2019-05-21T07:24:19.451Z,12.97
2019-05-21T07:26:45.830Z,13.17
2019-05-21T07:29:12.269Z,13.13
2019-05-21T07:31:38.696Z,13.70
2019-05-21T07:34:05.107Z,13.90
2019-05-21T07:36:33.430Z,14.13
2019-05-21T07:38:59.876Z,13.40
2019-05-21T07:41:26.265Z,15.80
2019-05-21T07:43:52.707Z,13.90
2019-05-21T07:46:19.095Z,14.77
2019-05-21T07:48:45.567Z,14.27
2019-05-21T07:51:12.016Z,14.93
2019-05-21T07:53:38.439Z,14.40
2019-05-21T07:56:04.825Z,15.33
2019-05-21T07:58:31.431Z,14.20
2019-05-21T08:01:00.950Z,16.03
2019-05-21T08:03:26.146Z,13.57
2019-05-21T08:05:52.515Z,14.77
2019-05-21T08:08:18.952Z,14.13
2019-05-21T08:10:45.423Z,14.23
2019-05-21T08:13:31.722Z,14.07
2019-05-21T08:15:58.111Z,14.87
2019-05-21T08:18:24.536Z,15.37
2019-05-21T08:20:50.932Z,16.17
2019-05-21T08:23:17.357Z,15.67
2019-05-21T08:25:43.753Z,15.77
2019-05-21T08:28:10.163Z,16.17
2019-05-21T08:30:36.597Z,16.73
2019-05-21T08:33:03.131Z,17.17
2019-05-21T08:35:29.801Z,20.20
2019-05-21T08:37:56.216Z,16.23
2019-05-21T08:40:22.703Z,14.77
2019-05-21T08:42:52.247Z,15.90
2019-05-21T08:45:18.627Z,16.63
2019-05-21T08:47:45.012Z,16.27
2019-05-21T08:50:11.923Z,17.17
2019-05-21T08:52:38.307Z,17.83
2019-05-21T08:55:05.331Z,17.40
2019-05-21T08:57:31.815Z,17.67
2019-05-21T08:59:58.239Z,15.97
2019-05-21T09:02:25.216Z,18.60
2019-05-21T09:04:51.627Z,16.10
2019-05-21T09:07:18.018Z,16.47
2019-05-21T09:09:49.953Z,16.70
2019-05-21T09:12:12.822Z,20.40
2019-05-21T09:14:39.256Z,16.83
2019-05-21T09:17:25.517Z,17.60
2019-05-21T09:19:51.940Z,18.43
2019-05-21T09:22:18.336Z,18.97
2019-05-21T09:24:44.789Z,17.93
2019-05-21T09:27:11.276Z,18.47
2019-05-21T09:29:37.696Z,19.33
2019-05-21T09:32:04.088Z,19.93
2019-05-21T09:34:46.008Z,20.03
2019-05-21T09:36:58.787Z,17.57
2019-05-21T09:39:25.203Z,21.47
2019-05-21T09:41:51.600Z,17.33
2019-05-21T09:44:18.004Z,18.13
2019-05-21T09:46:44.406Z,18.70
2019-05-21T09:49:10.859Z,18.23
2019-05-21T09:51:37.247Z,18.70
2019-05-21T09:54:03.765Z,17.70
2019-05-21T09:59:38.049Z,18.27
2019-05-21T10:02:12.304Z,17.87
2019-05-21T10:04:38.723Z,19.87
2019-05-21T10:07:05.214Z,22.15
2019-05-21T10:09:31.642Z,17.90
2019-05-21T10:11:58.064Z,16.53
2019-05-21T10:14:24.480Z,16.30
2019-05-21T10:16:50.868Z,17.27
2019-05-21T10:19:17.271Z,17.77
2019-05-21T10:21:43.687Z,17.00
2019-05-21T10:24:10.072Z,17.33
2019-05-21T10:26:36.508Z,17.50
2019-05-21T10:29:03.148Z,16.93
2019-05-21T10:31:29.603Z,16.47
2019-05-21T10:33:56.208Z,17.13
2019-05-21T10:36:22.717Z,15.53
2019-05-21T10:38:49.116Z,15.93
2019-05-21T10:41:15.550Z,16.10
2019-05-21T10:43:42.093Z,17.23
2019-05-21T10:46:08.733Z,16.07
2019-05-21T10:48:35.126Z,14.73
2019-05-21T10:51:21.433Z,16.10
2019-05-21T10:53:47.815Z,15.47
2019-05-21T10:56:16.263Z,16.43
2019-05-21T10:58:42.657Z,16.63
2019-05-21T11:01:25.936Z,15.70
2019-05-21T11:04:11.042Z,16.57
2019-05-21T11:06:37.577Z,16.37
2019-05-21T11:09:07.459Z,16.63
2019-05-21T11:11:34.021Z,16.73
2019-05-21T11:14:02.627Z,14.90
2019-05-21T11:16:29.040Z,16.47
2019-05-21T11:18:55.419Z,17.27
2019-05-21T11:21:21.852Z,17.60
2019-05-21T11:23:48.288Z,16.57
2019-05-21T11:26:14.843Z,15.23
2019-05-21T11:28:41.223Z,17.20
2019-05-21T11:31:07.651Z,15.33
2019-05-21T11:33:34.199Z,14.53
2019-05-21T11:36:01.939Z,14.57
2019-05-21T11:38:39.623Z,13.23
2019-05-21T11:40:57.770Z,17.05
2019-05-21T11:43:24.241Z,14.67
2019-05-21T11:45:50.667Z,14.47
2019-05-21T11:48:17.064Z,15.37
2019-05-21T11:50:43.479Z,14.60
2019-05-21T11:53:09.868Z,15.03
2019-05-21T11:55:56.173Z,14.13
2019-05-21T11:58:22.566Z,14.93
2019-05-21T12:00:49.104Z,15.30
2019-05-21T12:03:15.489Z,15.13
2019-05-21T12:05:42.030Z,14.73
2019-05-21T12:08:08.426Z,17.37
2019-05-21T12:10:34.886Z,15.80
2019-05-21T12:13:01.303Z,15.23
2019-05-21T12:15:27.795Z,15.50
2019-05-21T12:17:54.201Z,16.23
2019-05-21T12:20:35.287Z,13.53
2019-05-21T12:22:49.096Z,15.93
2019-05-21T12:25:15.479Z,16.37
2019-05-21T12:27:41.901Z,16.00
2019-05-21T12:30:08.388Z,15.03
2019-05-21T12:32:34.822Z,17.07
2019-05-21T12:35:01.220Z,16.97
2019-05-21T12:37:27.647Z,17.50
2019-05-21T12:40:00.160Z,15.50
2019-05-21T12:42:26.576Z,17.33
2019-05-21T12:44:53.058Z,18.00
2019-05-21T12:47:19.504Z,16.53
2019-05-21T12:49:45.885Z,17.03
2019-05-21T12:52:12.323Z,17.30
2019-05-21T12:54:38.708Z,17.23
2019-05-21T12:57:05.134Z,17.57
2019-05-21T12:59:31.667Z,17.37
2019-05-21T13:01:58.483Z,16.57
2019-05-21T13:04:24.866Z,17.23
2019-05-21T13:06:51.282Z,16.37
2019-05-21T13:09:31.405Z,17.63
2019-05-21T13:11:46.130Z,18.27
2019-05-21T13:14:18.507Z,18.63
2019-05-21T13:16:42.845Z,20.25
2019-05-21T13:19:29.190Z,18.17
2019-05-21T13:21:55.689Z,18.67
2019-05-21T13:24:22.074Z,17.60
2019-05-21T13:26:48.464Z,18.27
2019-05-21T13:29:14.986Z,17.37
2019-05-21T13:31:41.524Z,19.53
2019-05-21T13:34:07.939Z,17.80
2019-05-21T13:36:34.324Z,18.30
2019-05-21T13:39:01.183Z,16.90
2019-05-21T13:41:27.574Z,17.07
2019-05-21T13:43:54.009Z,17.67
2019-05-21T13:46:22.564Z,16.87
2019-05-21T13:48:49.105Z,17.50
2019-05-21T13:51:15.504Z,18.40
2019-05-21T13:53:42.029Z,16.70
2019-05-21T13:56:08.423Z,17.40
2019-05-21T13:58:34.945Z,17.60
2019-05-21T14:01:01.732Z,18.03
2019-05-21T14:03:28.168Z,18.60
2019-05-21T14:05:54.541Z,18.60
2019-05-21T14:08:20.971Z,18.57
2019-05-21T14:10:47.380Z,17.77
2019-05-21T14:13:14.095Z,18.67
2019-05-21T14:15:40.536Z,18.53
2019-05-21T14:18:07.077Z,18.33
2019-05-21T14:20:33.481Z,19.23
2019-05-21T14:22:59.914Z,20.20
2019-05-21T14:25:25.951Z,20.53
2019-05-21T14:27:52.016Z,20.20
2019-05-21T14:30:18.147Z,20.80
2019-05-21T14:32:44.229Z,22.70
2019-05-21T14:35:10.821Z,21.70
2019-05-21T14:37:36.872Z,19.80
2019-05-21T14:40:05.319Z,21.63
2019-05-21T14:42:31.547Z,21.57
2019-05-21T14:44:57.669Z,21.33
2019-05-21T14:47:25.596Z,21.40
2019-05-21T14:49:51.659Z,20.83
2019-05-21T14:52:17.680Z,22.47
2019-05-21T14:54:43.736Z,23.97
2019-05-21T14:57:12.549Z,20.73
2019-05-21T14:59:39.563Z,21.30
2019-05-21T15:02:05.639Z,20.87
2019-05-21T15:04:31.923Z,23.70
2019-05-21T15:06:58.208Z,20.83
2019-05-21T15:09:24.268Z,23.23
2019-05-21T15:11:50.320Z,22.03
2019-05-21T15:14:16.399Z,20.30
2019-05-21T15:16:42.433Z,20.90
2019-05-21T15:19:08.467Z,21.37
2019-05-21T15:21:39.108Z,19.53
2019-05-21T15:24:05.424Z,20.07
2019-05-21T15:26:31.682Z,21.67
2019-05-21T15:28:57.755Z,21.67
2019-05-21T15:31:23.848Z,25.33
2019-05-21T15:33:50.048Z,22.80
2019-05-21T15:36:16.165Z,21.83
2019-05-21T15:38:50.113Z,20.77
2019-05-21T15:41:12.992Z,21.93
2019-05-21T15:43:41.251Z,20.77
2019-05-21T15:46:07.272Z,20.97
2019-05-21T15:48:36.068Z,21.57
2019-05-21T15:51:02.128Z,21.20
2019-05-21T15:53:28.214Z,23.27
2019-05-21T15:55:56.263Z,23.03
2019-05-21T15:58:26.560Z,21.83
2019-05-21T16:00:50.430Z,22.10
2019-05-21T16:03:16.473Z,23.57
2019-05-21T16:05:42.548Z,23.30
2019-05-21T16:08:11.528Z,22.97
2019-05-21T16:10:37.749Z,21.37
2019-05-21T16:13:03.847Z,23.13
2019-05-21T16:15:31.037Z,24.43
2019-05-21T16:17:57.109Z,22.23
2019-05-21T16:20:23.547Z,22.87
2019-05-21T16:22:49.577Z,24.03
2019-05-21T16:25:15.871Z,22.63
2019-05-21T16:27:41.911Z,22.40
2019-05-21T16:30:08.405Z,26.17
2019-05-21T16:32:34.904Z,26.85
2019-05-21T16:35:02.908Z,22.73
2019-05-21T16:37:29.056Z,23.00
2019-05-21T16:39:55.274Z,23.63
2019-05-21T16:42:23.532Z,24.27
2019-05-21T16:44:49.617Z,25.17
2019-05-21T16:47:15.644Z,22.97
2019-05-21T16:49:41.688Z,22.73
2019-05-21T16:52:07.725Z,25.97
2019-05-21T16:54:34.788Z,23.83
2019-05-21T16:57:00.857Z,22.77
2019-05-21T16:59:26.993Z,22.40
2019-05-21T17:01:53.023Z,21.67
2019-05-21T17:04:19.071Z,23.50
2019-05-21T17:06:45.128Z,24.00
2019-05-21T17:09:11.293Z,24.37
2019-05-21T17:11:37.383Z,26.13
2019-05-21T17:14:03.461Z,23.13
2019-05-21T17:16:29.558Z,27.23
2019-05-21T17:19:00.413Z,26.30
2019-05-21T17:21:29.818Z,26.43
2019-05-21T17:23:58.570Z,25.13
2019-05-21T17:26:24.648Z,23.63
2019-05-21T17:28:50.716Z,24.23
2019-05-21T17:31:16.820Z,23.23
2019-05-21T17:33:42.860Z,23.13
2019-05-21T17:36:08.991Z,24.43
2019-05-21T17:38:35.011Z,24.77
2019-05-21T17:41:11.013Z,23.87
2019-05-21T17:43:37.052Z,23.60
2019-05-21T17:46:03.162Z,18.93
2019-05-21T17:48:29.280Z,22.10
2019-05-21T17:50:55.514Z,20.63
2019-05-21T17:53:22.607Z,20.40
2019-05-21T17:55:48.845Z,18.87
2019-05-21T17:58:14.987Z,19.80
2019-05-21T18:00:47.487Z,17.23
2019-05-21T18:03:17.439Z,19.37
2019-05-21T18:05:44.505Z,19.27
2019-05-21T18:08:12.692Z,21.42
2019-05-21T18:10:39.670Z,21.40
2019-05-21T18:13:05.740Z,20.17
2019-05-21T18:15:32.359Z,18.90
2019-05-21T18:17:58.540Z,20.83
2019-05-21T18:20:24.807Z,19.43
2019-05-21T18:22:53.806Z,19.47
2019-05-21T18:25:21.628Z,19.10
2019-05-21T18:27:48.496Z,17.40
2019-05-21T18:30:14.937Z,16.37
2019-05-21T18:32:41.567Z,15.20
2019-05-21T18:35:08.617Z,15.63
2019-05-21T18:37:36.675Z,13.63
2019-05-21T18:40:04.651Z,14.03
2019-05-21T18:42:31.128Z,12.60
2019-05-21T18:44:57.532Z,16.90
2019-05-21T18:47:24.052Z,14.57
2019-05-21T18:49:50.650Z,13.03
2019-05-21T18:52:17.204Z,15.27
2019-05-21T18:54:47.661Z,16.07
2019-05-21T18:57:14.190Z,14.17
2019-05-21T18:59:40.703Z,15.37
2019-05-21T19:02:07.379Z,16.50
2019-05-21T19:04:36.429Z,17.10
2019-05-21T19:07:03.232Z,17.03
2019-05-21T19:09:29.742Z,17.27
2019-05-21T19:11:56.165Z,18.47
2019-05-21T19:14:22.620Z,20.10
2019-05-21T19:16:49.106Z,16.97
2019-05-21T19:19:15.542Z,19.93
2019-05-21T19:21:41.903Z,18.07
2019-05-21T19:24:08.492Z,19.83
2019-05-21T19:26:34.884Z,21.30
2019-05-21T19:29:01.312Z,18.23
2019-05-21T19:31:27.940Z,19.93
2019-05-21T19:33:54.467Z,17.93
2019-05-21T19:36:20.880Z,18.03
2019-05-21T19:38:47.328Z,21.95
2019-05-21T19:41:13.712Z,19.10
2019-05-21T19:43:40.143Z,20.97
2019-05-21T19:46:26.407Z,21.93
2019-05-21T19:48:52.858Z,21.90
2019-05-21T19:51:19.609Z,22.77
2019-05-21T19:53:46.063Z,21.50
2019-05-21T19:56:12.471Z,24.00
2019-05-21T19:58:38.992Z,23.47
2019-05-21T20:01:05.501Z,22.10
2019-05-21T20:03:31.987Z,20.73
2019-05-21T20:06:00.210Z,19.63
2019-05-21T20:08:27.783Z,17.63
2019-05-21T20:10:54.267Z,17.97
2019-05-21T20:13:32.191Z,18.97
2019-05-21T20:15:51.395Z,18.70
2019-05-21T20:18:38.256Z,18.83
2019-05-21T20:21:05.631Z,20.50
2019-05-21T20:23:52.428Z,20.23
2019-05-21T20:26:41.748Z,19.67
2019-05-21T20:29:09.358Z,20.23
2019-05-21T20:31:36.125Z,20.73
2019-05-21T20:34:02.868Z,21.93
2019-05-21T20:36:29.297Z,21.77
2019-05-21T20:38:56.491Z,23.20
2019-05-21T20:41:23.019Z,26.43
2019-05-21T20:43:58.570Z,25.47
2019-05-21T20:46:18.250Z,28.90
2019-05-21T20:48:45.042Z,27.23
2019-05-21T20:51:11.780Z,26.13
2019-05-21T20:53:38.508Z,28.37
2019-05-21T20:56:26.712Z,28.27
2019-05-21T20:58:53.210Z,29.17
2019-05-21T21:01:19.629Z,29.17
2019-05-21T21:03:46.280Z,26.40
2019-05-21T21:06:13.780Z,31.10
2019-05-21T21:08:40.779Z,38.90
2019-05-21T21:11:08.436Z,30.93
2019-05-21T21:13:34.938Z,31.03
2019-05-21T21:16:02.977Z,30.67
2019-05-21T21:18:30.147Z,30.43
2019-05-21T21:20:56.649Z,32.17
2019-05-21T21:23:24.963Z,30.73
2019-05-21T21:25:51.396Z,31.77
2019-05-21T21:28:18.066Z,31.63
2019-05-21T21:30:44.611Z,28.63
2019-05-21T21:33:11.783Z,29.40
2019-05-21T21:35:43.533Z,28.77
2019-05-21T21:38:10.516Z,27.63
2019-05-21T21:40:37.269Z,30.83
2019-05-21T21:43:03.648Z,28.97
2019-05-21T21:45:30.071Z,26.93
2019-05-21T21:47:57.048Z,29.03
2019-05-21T21:50:25.366Z,29.30
2019-05-21T21:52:51.739Z,27.33
2019-05-21T21:55:18.167Z,31.27
2019-05-21T21:58:04.427Z,28.97
2019-05-21T22:00:58.613Z,32.27
2019-05-21T22:03:26.595Z,31.77
2019-05-21T22:05:53.222Z,34.87
2019-05-21T22:08:19.635Z,35.27
2019-05-21T22:10:46.095Z,32.90
2019-05-21T22:13:12.948Z,27.50
2019-05-21T22:15:39.890Z,27.70
2019-05-21T22:18:06.358Z,28.17
2019-05-21T22:20:32.742Z,29.80
2019-05-21T22:22:59.255Z,31.27
2019-05-21T22:25:25.740Z,30.20
2019-05-21T22:27:57.095Z,31.43
2019-05-21T22:30:25.579Z,29.03
2019-05-21T22:32:51.999Z,29.10
2019-05-21T22:35:18.379Z,27.13
2019-05-21T22:37:44.784Z,26.67
2019-05-21T22:40:12.477Z,25.30
2019-05-21T22:42:38.882Z,24.87
2019-05-21T22:45:08.812Z,24.33
2019-05-21T22:47:35.775Z,25.83
2019-05-21T22:50:03.458Z,26.87
2019-05-21T22:52:30.175Z,28.50
2019-05-21T22:54:56.548Z,27.03
2019-05-21T22:57:25.997Z,26.43
2019-05-21T22:59:51.559Z,23.87
2019-05-21T23:02:19.843Z,23.90
2019-05-21T23:04:53.983Z,21.80
2019-05-21T23:07:20.474Z,24.30
2019-05-21T23:09:47.110Z,21.13
2019-05-21T23:12:13.699Z,23.73
2019-05-21T23:14:40.124Z,23.60
2019-05-21T23:17:08.115Z,20.57
2019-05-21T23:19:34.788Z,21.77
2019-05-21T23:22:02.033Z,20.80
2019-05-21T23:24:29.109Z,21.60
2019-05-21T23:26:56.372Z,20.90
2019-05-21T23:29:23.366Z,21.97
2019-05-21T23:31:49.893Z,20.30
2019-05-21T23:34:37.468Z,23.10
2019-05-21T23:37:04.627Z,21.90
2019-05-21T23:39:39.804Z,22.30
2019-05-21T23:42:08.123Z,20.03
2019-05-21T23:44:34.715Z,20.80
2019-05-21T23:47:02.208Z,20.90
2019-05-21T23:49:28.595Z,22.07
2019-05-21T23:51:55.035Z,22.13
2019-05-21T23:54:21.451Z,22.47
2019-05-21T23:56:48.076Z,21.53
2019-05-21T23:59:14.862Z,22.57
